sensor_id;sensor_type;location;lat;lon;timestamp;pressure;altitude;pressure_sealevel;temperature;humidity
53619;BME280;68717;53.040;18.488;2023-07-13T00:00:05;100796.53;;;18.17;100.00
53619;BME280;68717;53.040;18.488;2023-07-13T00:00:28;100796.38;;;18.18;100.00
53619;BME280;68717;53.040;18.488;2023-07-13T00:01:04;100796.38;;;18.18;100.00
53619;BME280;68717;53.040;18.488;2023-07-13T00:01:26;100793.66;;;18.18;100.00
53619;BME280;68717;53.040;18.488;2023-07-13T00:01:39;100793.00;;;18.16;100.00
53619;BME280;68717;53.040;18.488;2023-07-13T00:01:51;100792.13;;;18.16;100.00
53619;BME280;68717;53.040;18.488;2023-07-13T00:02:04;100788.56;;;18.15;100.00
53619;BME280;68717;53.040;18.488;2023-07-13T00:02:17;100792.31;;;18.14;100.00
53619;BME280;68717;53.040;18.488;2023-07-13T00:02:30;100789.59;;;18.14;100.00
53619;BME280;68717;53.040;18.488;2023-07-13T00:02:42;100786.91;;;18.14;100.00
53619;BME280;68717;53.040;18.488;2023-07-13T00:02:56;100788.78;;;18.14;100.00
53619;BME280;68717;53.040;18.488;2023-07-13T00:03:10;100788.78;;;18.14;100.00
53619;BME280;68717;53.040;18.488;2023-07-13T00:03:26;100787.91;;;18.13;100.00
53619;BME280;68717;53.040;18.488;2023-07-13T00:03:40;100787.91;;;18.13;100.00
53619;BME280;68717;53.040;18.488;2023-07-13T00:03:53;100788.94;;;18.12;100.00
53619;BME280;68717;53.040;18.488;2023-07-13T00:04:06;100789.78;;;18.13;100.00
53619;BME280;68717;53.040;18.488;2023-07-13T00:04:20;100784.53;;;18.11;100.00
53619;BME280;68717;53.040;18.488;2023-07-13T00:04:33;100791.66;;;18.12;100.00
53619;BME280;68717;53.040;18.488;2023-07-13T00:04:46;100791.66;;;18.12;100.00
53619;BME280;68717;53.040;18.488;2023-07-13T00:04:59;100785.41;;;18.12;100.00
53619;BME280;68717;53.040;18.488;2023-07-13T00:05:13;100791.66;;;18.12;100.00
53619;BME280;68717;53.040;18.488;2023-07-13T00:05:25;100789.13;;;18.11;100.00
53619;BME280;68717;53.040;18.488;2023-07-13T00:05:39;100788.09;;;18.12;100.00
53619;BME280;68717;53.040;18.488;2023-07-13T00:05:57;100786.22;;;18.12;100.00
53619;BME280;68717;53.040;18.488;2023-07-13T00:06:11;100789.94;;;18.11;100.00
53619;BME280;68717;53.040;18.488;2023-07-13T00:06:24;100787.25;;;18.11;100.00
53619;BME280;68717;53.040;18.488;2023-07-13T00:06:36;100791.66;;;18.12;100.00
53619;BME280;68717;53.040;18.488;2023-07-13T00:06:49;100789.94;;;18.11;100.00
53619;BME280;68717;53.040;18.488;2023-07-13T00:07:03;100795.38;;;18.11;100.00
53619;BME280;68717;53.040;18.488;2023-07-13T00:07:16;100794.38;;;18.12;100.00
53619;BME280;68717;53.040;18.488;2023-07-13T00:07:31;100787.25;;;18.11;100.00
53619;BME280;68717;53.040;18.488;2023-07-13T00:07:43;100787.25;;;18.11;100.00
53619;BME280;68717;53.040;18.488;2023-07-13T00:07:58;100796.41;;;18.10;100.00
53619;BME280;68717;53.040;18.488;2023-07-13T00:08:11;100792.88;;;18.10;100.00
53619;BME280;68717;53.040;18.488;2023-07-13T00:08:24;100792.00;;;18.09;100.00
53619;BME280;68717;53.040;18.488;2023-07-13T00:08:36;100787.63;;;18.08;100.00
53619;BME280;68717;53.040;18.488;2023-07-13T00:08:49;100790.31;;;18.08;100.00
53619;BME280;68717;53.040;18.488;2023-07-13T00:09:02;100792.19;;;18.08;100.00
53619;BME280;68717;53.040;18.488;2023-07-13T00:09:16;100794.03;;;18.07;100.00
53619;BME280;68717;53.040;18.488;2023-07-13T00:09:29;100795.91;;;18.06;100.00
53619;BME280;68717;53.040;18.488;2023-07-13T00:09:41;100792.38;;;18.06;100.00
53619;BME280;68717;53.040;18.488;2023-07-13T00:09:54;100793.41;;;18.05;100.00
53619;BME280;68717;53.040;18.488;2023-07-13T00:10:08;100799.69;;;18.05;100.00
53619;BME280;68717;53.040;18.488;2023-07-13T00:10:22;100796.13;;;18.05;100.00
53619;BME280;68717;53.040;18.488;2023-07-13T00:10:39;100800.50;;;18.06;100.00
53619;BME280;68717;53.040;18.488;2023-07-13T00:10:52;100793.41;;;18.05;100.00
53619;BME280;68717;53.040;18.488;2023-07-13T00:11:06;100798.84;;;18.05;100.00
53619;BME280;68717;53.040;18.488;2023-07-13T00:11:19;100800.69;;;18.04;100.00
53619;BME280;68717;53.040;18.488;2023-07-13T00:11:32;100798.16;;;18.03;100.00
53619;BME280;68717;53.040;18.488;2023-07-13T00:11:45;100798.16;;;18.03;100.00
53619;BME280;68717;53.040;18.488;2023-07-13T00:12:01;100795.47;;;18.03;100.00
53619;BME280;68717;53.040;18.488;2023-07-13T00:12:26;100789.16;;;18.02;100.00
53619;BME280;68717;53.040;18.488;2023-07-13T00:12:40;100796.47;;;18.02;100.00
53619;BME280;68717;53.040;18.488;2023-07-13T00:12:55;100791.03;;;18.02;100.00
53619;BME280;68717;53.040;18.488;2023-07-13T00:13:08;100790.22;;;18.01;100.00
53619;BME280;68717;53.040;18.488;2023-07-13T00:13:20;100791.03;;;18.02;100.00
53619;BME280;68717;53.040;18.488;2023-07-13T00:13:33;100792.09;;;18.01;100.00
53619;BME280;68717;53.040;18.488;2023-07-13T00:13:45;100791.22;;;18.00;100.00
53619;BME280;68717;53.040;18.488;2023-07-13T00:13:58;100789.38;;;18.01;100.00
53619;BME280;68717;53.040;18.488;2023-07-13T00:14:11;100789.38;;;18.01;100.00
53619;BME280;68717;53.040;18.488;2023-07-13T00:14:25;100797.50;;;18.01;100.00
53619;BME280;68717;53.040;18.488;2023-07-13T00:14:39;100792.25;;;17.99;100.00
53619;BME280;68717;53.040;18.488;2023-07-13T00:14:52;100787.66;;;18.00;100.00
53619;BME280;68717;53.040;18.488;2023-07-13T00:15:07;100793.09;;;18.00;100.00
53619;BME280;68717;53.040;18.488;2023-07-13T00:15:23;100789.53;;;17.99;100.00
53619;BME280;68717;53.040;18.488;2023-07-13T00:15:36;100791.41;;;17.99;100.00
53619;BME280;68717;53.040;18.488;2023-07-13T00:15:49;100787.84;;;17.98;100.00
53619;BME280;68717;53.040;18.488;2023-07-13T00:16:02;100794.13;;;17.99;100.00
53619;BME280;68717;53.040;18.488;2023-07-13T00:16:15;100791.41;;;17.99;100.00
53619;BME280;68717;53.040;18.488;2023-07-13T00:16:31;100788.72;;;17.99;100.00
53619;BME280;68717;53.040;18.488;2023-07-13T00:16:44;100790.53;;;17.98;100.00
53619;BME280;68717;53.040;18.488;2023-07-13T00:16:56;100796.84;;;17.99;100.00
53619;BME280;68717;53.040;18.488;2023-07-13T00:17:09;100790.53;;;17.98;100.00
53619;BME280;68717;53.040;18.488;2023-07-13T00:17:22;100790.53;;;17.98;100.00
53619;BME280;68717;53.040;18.488;2023-07-13T00:17:35;100787.84;;;17.98;100.00
53619;BME280;68717;53.040;18.488;2023-07-13T00:17:47;100797.84;;;17.98;100.00
53619;BME280;68717;53.040;18.488;2023-07-13T00:18:00;100788.72;;;17.99;100.00
53619;BME280;68717;53.040;18.488;2023-07-13T00:18:13;100794.13;;;17.99;100.00
53619;BME280;68717;53.040;18.488;2023-07-13T00:18:26;100791.41;;;17.99;100.00
53619;BME280;68717;53.040;18.488;2023-07-13T00:18:42;100796.84;;;17.99;100.00
53619;BME280;68717;53.040;18.488;2023-07-13T00:18:55;100786.00;;;17.99;100.00
53619;BME280;68717;53.040;18.488;2023-07-13T00:19:08;100794.13;;;17.99;100.00
53619;BME280;68717;53.040;18.488;2023-07-13T00:19:20;100801.41;;;17.98;100.00
53619;BME280;68717;53.040;18.488;2023-07-13T00:19:36;100789.72;;;17.98;100.00
53619;BME280;68717;53.040;18.488;2023-07-13T00:19:48;100798.69;;;17.98;100.00
53619;BME280;68717;53.040;18.488;2023-07-13T00:20:01;100788.72;;;17.99;100.00
53619;BME280;68717;53.040;18.488;2023-07-13T00:20:14;100796.84;;;17.99;100.00
53619;BME280;68717;53.040;18.488;2023-07-13T00:20:26;100795.81;;;18.00;100.00
53619;BME280;68717;53.040;18.488;2023-07-13T00:20:40;100789.53;;;17.99;100.00
53619;BME280;68717;53.040;18.488;2023-07-13T00:20:53;100789.72;;;17.98;100.00
53619;BME280;68717;53.040;18.488;2023-07-13T00:21:06;100795.97;;;17.98;100.00
53619;BME280;68717;53.040;18.488;2023-07-13T00:21:19;100792.41;;;17.98;100.00
53619;BME280;68717;53.040;18.488;2023-07-13T00:21:31;100795.97;;;17.98;100.00
53619;BME280;68717;53.040;18.488;2023-07-13T00:21:44;100798.69;;;17.98;100.00
53619;BME280;68717;53.040;18.488;2023-07-13T00:21:57;100795.13;;;17.98;100.00
53619;BME280;68717;53.040;18.488;2023-07-13T00:22:11;100795.13;;;17.98;100.00
53619;BME280;68717;53.040;18.488;2023-07-13T00:22:24;100797.69;;;17.99;100.00
53619;BME280;68717;53.040;18.488;2023-07-13T00:22:38;100795.97;;;17.98;100.00
53619;BME280;68717;53.040;18.488;2023-07-13T00:22:52;100795.13;;;17.98;100.00
53619;BME280;68717;53.040;18.488;2023-07-13T00:23:05;100795.13;;;17.98;100.00
53619;BME280;68717;53.040;18.488;2023-07-13T00:23:19;100795.97;;;17.98;100.00
53619;BME280;68717;53.040;18.488;2023-07-13T00:23:31;100796.84;;;17.99;100.00
53619;BME280;68717;53.040;18.488;2023-07-13T00:23:46;100790.53;;;17.98;100.00
53619;BME280;68717;53.040;18.488;2023-07-13T00:23:59;100797.84;;;17.98;100.00
53619;BME280;68717;53.040;18.488;2023-07-13T00:24:17;100801.41;;;17.98;100.00
53619;BME280;68717;53.040;18.488;2023-07-13T00:24:35;100797.00;;;17.97;100.00
53619;BME280;68717;53.040;18.488;2023-07-13T00:24:51;100793.47;;;17.97;100.00
53619;BME280;68717;53.040;18.488;2023-07-13T00:25:05;100788.22;;;17.95;100.00
53619;BME280;68717;53.040;18.488;2023-07-13T00:25:18;100795.50;;;17.95;100.00
53619;BME280;68717;53.040;18.488;2023-07-13T00:25:30;100792.97;;;17.93;100.00
53619;BME280;68717;53.040;18.488;2023-07-13T00:25:43;100789.41;;;17.93;100.00
53619;BME280;68717;53.040;18.488;2023-07-13T00:25:55;100796.72;;;17.92;100.00
53619;BME280;68717;53.040;18.488;2023-07-13T00:26:10;100794.00;;;17.92;100.00
53619;BME280;68717;53.040;18.488;2023-07-13T00:26:25;100784.16;;;17.91;100.00
53619;BME280;68717;53.040;18.488;2023-07-13T00:26:37;100786.88;;;17.91;100.00
53619;BME280;68717;53.040;18.488;2023-07-13T00:26:50;100789.75;;;17.90;100.00
53619;BME280;68717;53.040;18.488;2023-07-13T00:27:03;100788.91;;;17.89;100.00
53619;BME280;68717;53.040;18.488;2023-07-13T00:27:16;100787.03;;;17.90;100.00
53619;BME280;68717;53.040;18.488;2023-07-13T00:27:30;100792.47;;;17.90;100.00
53619;BME280;68717;53.040;18.488;2023-07-13T00:27:44;100792.47;;;17.90;100.00
53619;BME280;68717;53.040;18.488;2023-07-13T00:27:57;100779.94;;;17.89;100.00
53619;BME280;68717;53.040;18.488;2023-07-13T00:28:10;100789.97;;;17.88;100.00
53619;BME280;68717;53.040;18.488;2023-07-13T00:28:23;100791.63;;;17.89;100.00
53619;BME280;68717;53.040;18.488;2023-07-13T00:28:36;100788.09;;;17.89;100.00
53619;BME280;68717;53.040;18.488;2023-07-13T00:28:49;100794.53;;;17.88;100.00
53619;BME280;68717;53.040;18.488;2023-07-13T00:29:01;100788.25;;;17.87;100.00
53619;BME280;68717;53.040;18.488;2023-07-13T00:29:14;100783.69;;;17.88;100.00
53619;BME280;68717;53.040;18.488;2023-07-13T00:29:29;100788.25;;;17.87;100.00
53619;BME280;68717;53.040;18.488;2023-07-13T00:29:43;100794.53;;;17.88;100.00
53619;BME280;68717;53.040;18.488;2023-07-13T00:29:56;100791.84;;;17.88;100.00
53619;BME280;68717;53.040;18.488;2023-07-13T00:30:09;100782.00;;;17.86;100.00
53619;BME280;68717;53.040;18.488;2023-07-13T00:30:22;100790.97;;;17.87;100.00
53619;BME280;68717;53.040;18.488;2023-07-13T00:30:35;100784.72;;;17.86;100.00
53619;BME280;68717;53.040;18.488;2023-07-13T00:30:47;100786.59;;;17.86;100.00
53619;BME280;68717;53.040;18.488;2023-07-13T00:31:00;100781.16;;;17.86;100.00
53619;BME280;68717;53.040;18.488;2023-07-13T00:31:14;100783.69;;;17.88;100.00
53619;BME280;68717;53.040;18.488;2023-07-13T00:31:28;100784.72;;;17.86;100.00
53619;BME280;68717;53.040;18.488;2023-07-13T00:31:42;100783.88;;;17.86;100.00
53619;BME280;68717;53.040;18.488;2023-07-13T00:31:56;100788.47;;;17.85;100.00
53619;BME280;68717;53.040;18.488;2023-07-13T00:32:10;100785.75;;;17.85;100.00
53619;BME280;68717;53.040;18.488;2023-07-13T00:32:24;100789.47;;;17.84;100.00
53619;BME280;68717;53.040;18.488;2023-07-13T00:32:38;100783.03;;;17.85;100.00
53619;BME280;68717;53.040;18.488;2023-07-13T00:32:50;100783.19;;;17.84;100.00
53619;BME280;68717;53.040;18.488;2023-07-13T00:33:15;100782.38;;;17.83;100.00
53619;BME280;68717;53.040;18.488;2023-07-13T00:33:30;100776.94;;;17.83;100.00
53619;BME280;68717;53.040;18.488;2023-07-13T00:33:43;100783.38;;;17.82;100.00
53619;BME280;68717;53.040;18.488;2023-07-13T00:33:56;100783.38;;;17.82;100.00
53619;BME280;68717;53.040;18.488;2023-07-13T00:34:09;100781.50;;;17.83;100.00
53619;BME280;68717;53.040;18.488;2023-07-13T00:34:21;100785.25;;;17.82;100.00
53619;BME280;68717;53.040;18.488;2023-07-13T00:34:34;100780.84;;;17.81;100.00
53619;BME280;68717;53.040;18.488;2023-07-13T00:34:46;100780.00;;;17.80;100.00
53619;BME280;68717;53.040;18.488;2023-07-13T00:34:59;100782.72;;;17.80;100.00
53619;BME280;68717;53.040;18.488;2023-07-13T00:35:13;100783.72;;;17.79;100.00
53619;BME280;68717;53.040;18.488;2023-07-13T00:35:30;100786.44;;;17.79;100.00
53619;BME280;68717;53.040;18.488;2023-07-13T00:35:43;100783.72;;;17.79;100.00
53619;BME280;68717;53.040;18.488;2023-07-13T00:35:57;100781.00;;;17.79;100.00
53619;BME280;68717;53.040;18.488;2023-07-13T00:36:10;100775.75;;;17.78;100.00
53619;BME280;68717;53.040;18.488;2023-07-13T00:36:23;100784.06;;;17.76;100.00
53619;BME280;68717;53.040;18.488;2023-07-13T00:36:36;100775.91;;;17.76;100.00
53619;BME280;68717;53.040;18.488;2023-07-13T00:36:48;100782.22;;;17.77;100.00
53619;BME280;68717;53.040;18.488;2023-07-13T00:37:01;100783.22;;;17.76;100.00
53619;BME280;68717;53.040;18.488;2023-07-13T00:37:13;100778.63;;;17.76;100.00
53619;BME280;68717;53.040;18.488;2023-07-13T00:37:27;100782.38;;;17.75;100.00
53619;BME280;68717;53.040;18.488;2023-07-13T00:37:39;100784.25;;;17.75;100.00
53619;BME280;68717;53.040;18.488;2023-07-13T00:37:52;100783.38;;;17.74;100.00
53619;BME280;68717;53.040;18.488;2023-07-13T00:38:05;100782.53;;;17.74;100.00
53619;BME280;68717;53.040;18.488;2023-07-13T00:38:17;100780.66;;;17.74;100.00
53619;BME280;68717;53.040;18.488;2023-07-13T00:38:30;100779.00;;;17.73;100.00
53619;BME280;68717;53.040;18.488;2023-07-13T00:38:43;100783.38;;;17.74;100.00
53619;BME280;68717;53.040;18.488;2023-07-13T00:38:56;100786.28;;;17.73;100.00
53619;BME280;68717;53.040;18.488;2023-07-13T00:39:09;100778.34;;;17.71;100.00
53619;BME280;68717;53.040;18.488;2023-07-13T00:39:22;100789.19;;;17.71;100.00
53619;BME280;68717;53.040;18.488;2023-07-13T00:39:35;100790.84;;;17.72;100.00
53619;BME280;68717;53.040;18.488;2023-07-13T00:39:48;100786.47;;;17.71;100.00
53619;BME280;68717;53.040;18.488;2023-07-13T00:40:01;100787.31;;;17.72;100.00
53619;BME280;68717;53.040;18.488;2023-07-13T00:40:16;100787.50;;;17.70;100.00
53619;BME280;68717;53.040;18.488;2023-07-13T00:40:29;100783.09;;;17.69;100.00
53619;BME280;68717;53.040;18.488;2023-07-13T00:40:42;100793.94;;;17.69;100.00
53619;BME280;68717;53.040;18.488;2023-07-13T00:40:55;100791.22;;;17.69;100.00
53619;BME280;68717;53.040;18.488;2023-07-13T00:41:07;100793.94;;;17.69;100.00
53619;BME280;68717;53.040;18.488;2023-07-13T00:41:21;100794.75;;;17.70;100.00
53619;BME280;68717;53.040;18.488;2023-07-13T00:41:34;100796.63;;;17.69;100.00
53619;BME280;68717;53.040;18.488;2023-07-13T00:41:46;100793.94;;;17.69;100.00
53619;BME280;68717;53.040;18.488;2023-07-13T00:41:59;100793.94;;;17.69;100.00
53619;BME280;68717;53.040;18.488;2023-07-13T00:42:12;100797.47;;;17.70;100.00
53619;BME280;68717;53.040;18.488;2023-07-13T00:42:25;100797.47;;;17.70;100.00
53619;BME280;68717;53.040;18.488;2023-07-13T00:42:37;100797.47;;;17.70;100.00
53619;BME280;68717;53.040;18.488;2023-07-13T00:42:51;100802.06;;;17.69;100.00
53619;BME280;68717;53.040;18.488;2023-07-13T00:43:09;100796.63;;;17.69;100.00
53619;BME280;68717;53.040;18.488;2023-07-13T00:43:28;100799.19;;;17.71;100.00
53619;BME280;68717;53.040;18.488;2023-07-13T00:43:40;100802.91;;;17.70;100.00
53619;BME280;68717;53.040;18.488;2023-07-13T00:43:53;100805.59;;;17.70;100.00
53619;BME280;68717;53.040;18.488;2023-07-13T00:44:09;100798.50;;;17.69;100.00
53619;BME280;68717;53.040;18.488;2023-07-13T00:44:24;100803.78;;;17.70;100.00
53619;BME280;68717;53.040;18.488;2023-07-13T00:44:37;100803.78;;;17.70;100.00
53619;BME280;68717;53.040;18.488;2023-07-13T00:45:03;100803.78;;;17.70;100.00
53619;BME280;68717;53.040;18.488;2023-07-13T00:46:22;100806.47;;;17.70;100.00
53619;BME280;68717;53.040;18.488;2023-07-13T00:46:37;100806.47;;;17.70;100.00
53619;BME280;68717;53.040;18.488;2023-07-13T00:46:50;100802.06;;;17.69;100.00
53619;BME280;68717;53.040;18.488;2023-07-13T00:47:02;100807.66;;;17.67;100.00
53619;BME280;68717;53.040;18.488;2023-07-13T00:47:15;100801.41;;;17.67;100.00
53619;BME280;68717;53.040;18.488;2023-07-13T00:47:27;100803.28;;;17.66;100.00
53619;BME280;68717;53.040;18.488;2023-07-13T00:47:40;100807.84;;;17.66;100.00
53619;BME280;68717;53.040;18.488;2023-07-13T00:47:55;100810.56;;;17.66;100.00
53619;BME280;68717;53.040;18.488;2023-07-13T00:48:10;100808.84;;;17.65;100.00
53619;BME280;68717;53.040;18.488;2023-07-13T00:48:27;100805.31;;;17.64;100.00
53619;BME280;68717;53.040;18.488;2023-07-13T00:48:42;100805.47;;;17.63;100.00
53619;BME280;68717;53.040;18.488;2023-07-13T00:48:57;100804.63;;;17.62;100.00
53619;BME280;68717;53.040;18.488;2023-07-13T00:49:15;100804.63;;;17.62;100.00
53619;BME280;68717;53.040;18.488;2023-07-13T00:49:32;100806.50;;;17.62;100.00
53619;BME280;68717;53.040;18.488;2023-07-13T00:49:46;100811.09;;;17.61;100.00
53619;BME280;68717;53.040;18.488;2023-07-13T00:50:00;100805.69;;;17.61;100.00
53619;BME280;68717;53.040;18.488;2023-07-13T00:50:15;100811.94;;;17.62;100.00
53619;BME280;68717;53.040;18.488;2023-07-13T00:50:28;100808.38;;;17.61;100.00
53619;BME280;68717;53.040;18.488;2023-07-13T00:50:42;100806.50;;;17.62;100.00
53619;BME280;68717;53.040;18.488;2023-07-13T00:50:58;100812.09;;;17.60;100.00
53619;BME280;68717;53.040;18.488;2023-07-13T00:51:13;100812.94;;;17.61;100.00
53619;BME280;68717;53.040;18.488;2023-07-13T00:51:31;100815.66;;;17.61;100.00
53619;BME280;68717;53.040;18.488;2023-07-13T00:51:49;100811.09;;;17.61;100.00
53619;BME280;68717;53.040;18.488;2023-07-13T00:52:05;100813.81;;;17.61;100.00
53619;BME280;68717;53.040;18.488;2023-07-13T00:52:18;100814.66;;;17.62;100.00
53619;BME280;68717;53.040;18.488;2023-07-13T00:52:31;100821.06;;;17.61;100.00
53619;BME280;68717;53.040;18.488;2023-07-13T00:52:46;100809.41;;;17.60;100.00
53619;BME280;68717;53.040;18.488;2023-07-13T00:53:00;100814.81;;;17.60;100.00
53619;BME280;68717;53.040;18.488;2023-07-13T00:53:13;100817.34;;;17.62;100.00
53619;BME280;68717;53.040;18.488;2023-07-13T00:53:27;100813.81;;;17.61;100.00
53619;BME280;68717;53.040;18.488;2023-07-13T00:53:42;100815.66;;;17.61;100.00
53619;BME280;68717;53.040;18.488;2023-07-13T00:53:58;100819.41;;;17.60;100.00
53619;BME280;68717;53.040;18.488;2023-07-13T00:54:15;100807.53;;;17.61;100.00
53619;BME280;68717;53.040;18.488;2023-07-13T00:54:33;100822.09;;;17.60;100.00
53619;BME280;68717;53.040;18.488;2023-07-13T00:54:47;100813.97;;;17.60;100.00
53619;BME280;68717;53.040;18.488;2023-07-13T00:55:01;100815.84;;;17.59;100.00
53619;BME280;68717;53.040;18.488;2023-07-13T00:55:15;100818.56;;;17.59;100.00
53619;BME280;68717;53.040;18.488;2023-07-13T00:55:28;100820.41;;;17.59;100.00
53619;BME280;68717;53.040;18.488;2023-07-13T00:55:41;100817.69;;;17.59;100.00
53619;BME280;68717;53.040;18.488;2023-07-13T00:55:55;100816.84;;;17.58;100.00
53619;BME280;68717;53.040;18.488;2023-07-13T00:56:09;100820.41;;;17.59;100.00
53619;BME280;68717;53.040;18.488;2023-07-13T00:56:22;100817.69;;;17.59;100.00
53619;BME280;68717;53.040;18.488;2023-07-13T00:56:35;100817.69;;;17.59;100.00
53619;BME280;68717;53.040;18.488;2023-07-13T00:56:52;100816.84;;;17.58;100.00
53619;BME280;68717;53.040;18.488;2023-07-13T00:57:11;100819.56;;;17.58;100.00
53619;BME280;68717;53.040;18.488;2023-07-13T00:57:24;100815.19;;;17.57;100.00
53619;BME280;68717;53.040;18.488;2023-07-13T00:57:37;100816.84;;;17.58;100.00
53619;BME280;68717;53.040;18.488;2023-07-13T00:57:50;100820.41;;;17.59;100.00
53619;BME280;68717;53.040;18.488;2023-07-13T00:58:03;100822.28;;;17.58;100.00
53619;BME280;68717;53.040;18.488;2023-07-13T00:58:17;100816.84;;;17.58;100.00
53619;BME280;68717;53.040;18.488;2023-07-13T00:58:30;100816.84;;;17.58;100.00
53619;BME280;68717;53.040;18.488;2023-07-13T00:58:42;100816.03;;;17.58;100.00
53619;BME280;68717;53.040;18.488;2023-07-13T00:58:56;100817.69;;;17.59;100.00
53619;BME280;68717;53.040;18.488;2023-07-13T00:59:12;100826.84;;;17.58;100.00
53619;BME280;68717;53.040;18.488;2023-07-13T00:59:26;100823.13;;;17.59;100.00
53619;BME280;68717;53.040;18.488;2023-07-13T00:59:40;100822.28;;;17.58;100.00
53619;BME280;68717;53.040;18.488;2023-07-13T00:59:59;100823.13;;;17.59;100.00
53619;BME280;68717;53.040;18.488;2023-07-13T01:00:20;100826.69;;;17.59;100.00
53619;BME280;68717;53.040;18.488;2023-07-13T01:00:35;100819.56;;;17.58;100.00
53619;BME280;68717;53.040;18.488;2023-07-13T01:00:49;100829.56;;;17.58;100.00
53619;BME280;68717;53.040;18.488;2023-07-13T01:01:03;100828.53;;;17.59;100.00
53619;BME280;68717;53.040;18.488;2023-07-13T01:01:15;100824.16;;;17.58;100.00
53619;BME280;68717;53.040;18.488;2023-07-13T01:01:29;100827.69;;;17.58;100.00
53619;BME280;68717;53.040;18.488;2023-07-13T01:01:43;100824.81;;;17.60;100.00
53619;BME280;68717;53.040;18.488;2023-07-13T01:01:55;100828.53;;;17.59;100.00
53619;BME280;68717;53.040;18.488;2023-07-13T01:02:09;100829.56;;;17.58;100.00
53619;BME280;68717;53.040;18.488;2023-07-13T01:02:24;100834.81;;;17.59;100.00
53619;BME280;68717;53.040;18.488;2023-07-13T01:02:38;100835.66;;;17.60;100.00
53619;BME280;68717;53.040;18.488;2023-07-13T01:02:51;100836.50;;;17.60;100.00
53619;BME280;68717;53.040;18.488;2023-07-13T01:03:04;100835.66;;;17.60;100.00
53619;BME280;68717;53.040;18.488;2023-07-13T01:03:17;100835.66;;;17.60;100.00
53619;BME280;68717;53.040;18.488;2023-07-13T01:03:31;100836.50;;;17.60;100.00
53619;BME280;68717;53.040;18.488;2023-07-13T01:03:45;100831.91;;;17.61;100.00
53619;BME280;68717;53.040;18.488;2023-07-13T01:03:59;100833.78;;;17.60;100.00
53619;BME280;68717;53.040;18.488;2023-07-13T01:04:11;100831.91;;;17.61;100.00
53619;BME280;68717;53.040;18.488;2023-07-13T01:04:25;100836.50;;;17.60;100.00
53619;BME280;68717;53.040;18.488;2023-07-13T01:04:38;100828.38;;;17.60;100.00
53619;BME280;68717;53.040;18.488;2023-07-13T01:04:51;100837.34;;;17.61;100.00
53619;BME280;68717;53.040;18.488;2023-07-13T01:05:09;100834.63;;;17.61;100.00
53619;BME280;68717;53.040;18.488;2023-07-13T01:05:24;100840.91;;;17.61;100.00
53619;BME280;68717;53.040;18.488;2023-07-13T01:05:37;100838.22;;;17.61;100.00
53619;BME280;68717;53.040;18.488;2023-07-13T01:05:51;100843.63;;;17.61;100.00
53619;BME280;68717;53.040;18.488;2023-07-13T01:06:06;100848.19;;;17.61;100.00
53619;BME280;68717;53.040;18.488;2023-07-13T01:06:19;100842.75;;;17.61;100.00
53619;BME280;68717;53.040;18.488;2023-07-13T01:06:32;100850.88;;;17.61;100.00
53619;BME280;68717;53.040;18.488;2023-07-13T01:06:45;100842.75;;;17.61;100.00
53619;BME280;68717;53.040;18.488;2023-07-13T01:06:59;100847.34;;;17.60;100.00
53619;BME280;68717;53.040;18.488;2023-07-13T01:07:12;100852.75;;;17.60;100.00
53619;BME280;68717;53.040;18.488;2023-07-13T01:07:25;100854.63;;;17.60;100.00
53619;BME280;68717;53.040;18.488;2023-07-13T01:07:38;100854.63;;;17.60;100.00
53619;BME280;68717;53.040;18.488;2023-07-13T01:07:52;100855.47;;;17.60;100.00
53619;BME280;68717;53.040;18.488;2023-07-13T01:08:05;100851.94;;;17.60;100.00
53619;BME280;68717;53.040;18.488;2023-07-13T01:08:18;100863.59;;;17.60;100.00
53619;BME280;68717;53.040;18.488;2023-07-13T01:08:30;100859.91;;;17.61;100.00
53619;BME280;68717;53.040;18.488;2023-07-13T01:08:44;100863.59;;;17.60;100.00
53619;BME280;68717;53.040;18.488;2023-07-13T01:08:58;100859.03;;;17.61;100.00
53619;BME280;68717;53.040;18.488;2023-07-13T01:09:12;100863.59;;;17.60;100.00
53619;BME280;68717;53.040;18.488;2023-07-13T01:09:26;100867.16;;;17.61;100.00
53619;BME280;68717;53.040;18.488;2023-07-13T01:09:39;100860.91;;;17.60;100.00
53619;BME280;68717;53.040;18.488;2023-07-13T01:09:52;100863.59;;;17.60;100.00
53619;BME280;68717;53.040;18.488;2023-07-13T01:10:06;100856.31;;;17.61;100.00
53619;BME280;68717;53.040;18.488;2023-07-13T01:10:22;100861.72;;;17.61;100.00
53619;BME280;68717;53.040;18.488;2023-07-13T01:10:35;100860.72;;;17.62;100.00
53619;BME280;68717;53.040;18.488;2023-07-13T01:10:53;100850.88;;;17.61;100.00
53619;BME280;68717;53.040;18.488;2023-07-13T01:11:05;100849.22;;;17.60;100.00
53619;BME280;68717;53.040;18.488;2023-07-13T01:11:21;100853.59;;;17.61;100.00
53619;BME280;68717;53.040;18.488;2023-07-13T01:11:34;100852.75;;;17.60;100.00
53619;BME280;68717;53.040;18.488;2023-07-13T01:11:47;100846.50;;;17.60;100.00
53619;BME280;68717;53.040;18.488;2023-07-13T01:12:00;100851.94;;;17.60;100.00
53619;BME280;68717;53.040;18.488;2023-07-13T01:12:13;100846.50;;;17.60;100.00